Terminal Aerodrome Forecast
Issued by NWS Shreveport, LA

Home | Current Version | Previous Version | Text Only | Print | Product List | Glossary On
Versions: 1 2 3 4 5 6 7 8 9 10 11 12 13 14 15 16
000
FTUS44 KSHV 202300
TAFGGG
TAF
KGGG 202339Z 2100/2124 VRB03KT P6SM SCT028
      TEMPO 2104/2106 BKN015
     FM210600 09003KT P6SM SCT007 BKN015
     FM210800 09003KT 6SM BR OVC007
      TEMPO 2111/2113 3SM BR OVC003
     FM211300 11003KT 3SM BR OVC003
     FM211600 14005KT 6SM BR SCT008 OVC017
     FM211800 15006KT P6SM SCT020 BKN025=

USA.gov is the U.S. government's official web portal to all federal, state and local government web resources and services.